Time;durP1;ratioP1;P1;durP2;ratioP2;P2;SDS_P1;SDS_P2;PMS_P1;PMS_P2;Temp;Humidity;BMP_temperature;BMP_pressure;BME280_temperature;BME280_humidity;BME280_pressure;Samples;Min_cycle;Max_cycle;Signal;HPM_P1;HPM_P2
2022/05/15 00:00:51;;;;;;;;;;;;;;;9.01;90.24;99211.88;1734171;82;20082;-70
2022/05/15 00:03:22;;;;;;;;;;;;;;;8.94;90.39;99209.58;1734037;82;20139;-70
2022/05/15 00:05:54;;;;;;;;;;;;;;;8.86;90.12;99213.07;1734130;83;21229;-70
2022/05/15 00:08:20;;;;;;;;;;;;;;;8.77;90.56;99215.75;1734091;83;20414;-70
2022/05/15 00:10:47;;;;;;;;;;;;;;;8.69;90.92;99213.76;1734042;83;20116;-70
2022/05/15 00:13:13;;;;;;;;;;;;;;;8.61;90.98;99218.64;1734144;83;20083;-70
2022/05/15 00:15:40;;;;;;;;;;;;;;;8.54;91.33;99221.80;1734079;82;20115;-70
2022/05/15 00:18:07;;;;;;;;;;;;;;;8.49;91.94;99215.08;1734135;82;21148;-70
2022/05/15 00:20:34;;;;;;;;;;;;;;;8.43;91.91;99208.11;1733917;83;20115;-70
2022/05/15 00:23:01;;;;;;;;;;;;;;;8.35;91.75;99214.32;1734054;83;20123;-70
2022/05/15 00:25:29;;;;;;;;;;;;;;;8.25;91.75;99213.16;1717325;83;20316;-71
2022/05/15 00:27:55;;;;;;;;;;;;;;;8.15;91.99;99222.39;1734061;82;20095;-71
2022/05/15 00:30:21;;;;;;;;;;;;;;;8.09;92.68;99218.71;1734328;83;20516;-71
2022/05/15 00:32:48;;;;;;;;;;;;;;;8.07;93.69;99216.87;1733972;82;20098;-71
2022/05/15 00:35:15;;;;;;;;;;;;;;;8.07;94.08;99214.14;1734133;83;20177;-71
2022/05/15 00:37:41;;;;;;;;;;;;;;;8.04;94.26;99213.38;1733973;83;20099;-71
2022/05/15 00:40:08;;;;;;;;;;;;;;;8.05;94.74;99220.47;1740696;82;20473;-71
2022/05/15 00:42:35;;;;;;;;;;;;;;;8.03;94.93;99218.60;1744911;82;21105;-71
2022/05/15 00:45:03;;;;;;;;;;;;;;;8.03;95.37;99225.44;1739016;81;20095;-70
2022/05/15 00:47:30;;;;;;;;;;;;;;;8.01;95.13;99220.83;1747981;81;20083;-70
2022/05/15 00:49:56;;;;;;;;;;;;;;;7.95;94.77;99213.30;1748038;82;20158;-70
2022/05/15 00:52:26;;;;;;;;;;;;;;;7.88;94.60;99210.98;1747971;82;20087;-70
2022/05/15 00:55:00;;;;;;;;;;;;;;;7.81;94.53;99216.05;1746129;82;21117;-70
2022/05/15 00:57:36;;;;;;;;;;;;;;;7.72;94.37;99210.23;1717927;83;20121;-70
2022/05/15 01:00:09;;;;;;;;;;;;;;;7.61;94.59;99202.25;1718307;83;20445;-70
2022/05/15 01:02:41;;;;;;;;;;;;;;;7.52;94.59;99204.62;1740128;82;20143;-70
2022/05/15 01:05:09;;;;;;;;;;;;;;;7.43;94.71;99207.84;1747765;82;20462;-70
2022/05/15 01:07:37;;;;;;;;;;;;;;;7.36;94.88;99203.33;1747979;82;21170;-70
2022/05/15 01:10:07;;;;;;;;;;;;;;;7.29;95.17;99204.54;1747934;81;20075;-69
2022/05/15 01:12:34;;;;;;;;;;;;;;;7.24;95.46;99204.64;1729119;81;20085;-71
2022/05/15 01:15:02;;;;;;;;;;;;;;;7.22;95.92;99195.13;1718525;83;37935;-70
2022/05/15 01:17:29;;;;;;;;;;;;;;;7.21;96.45;99197.05;1718311;83;20121;-69
2022/05/15 01:20:05;;;;;;;;;;;;;;;7.20;96.54;99202.25;1741059;80;21254;-69
2022/05/15 01:22:32;;;;;;;;;;;;;;;7.16;96.60;99193.60;1717518;82;20520;-68
2022/05/15 01:24:59;;;;;;;;;;;;;;;7.17;97.47;99195.22;1736350;82;20095;-69
2022/05/15 01:27:25;;;;;;;;;;;;;;;7.17;97.58;99191.94;1748117;81;20474;-68
2022/05/15 01:29:52;;;;;;;;;;;;;;;7.20;98.06;99196.80;1748173;82;20414;-69
2022/05/15 01:32:19;;;;;;;;;;;;;;;7.23;98.32;99198.92;1748053;82;21162;-70
2022/05/15 01:34:46;;;;;;;;;;;;;;;7.26;98.69;99194.22;1747901;81;20442;-69
2022/05/15 01:37:13;;;;;;;;;;;;;;;7.28;98.84;99189.83;1748037;81;20095;-69
2022/05/15 01:39:39;;;;;;;;;;;;;;;7.26;98.71;99181.94;1747893;81;20079;-70
2022/05/15 01:42:07;;;;;;;;;;;;;;;7.21;98.32;99178.49;1747967;82;20094;-69
2022/05/15 01:44:33;;;;;;;;;;;;;;;7.18;98.51;99182.64;1747959;81;21118;-70
2022/05/15 01:47:00;;;;;;;;;;;;;;;7.18;99.32;99185.92;1747962;82;20450;-69
2022/05/15 01:49:26;;;;;;;;;;;;;;;7.21;99.93;99186.13;1747752;81;20122;-69
2022/05/15 01:51:53;;;;;;;;;;;;;;;7.24;100.00;99178.70;1748044;81;20095;-70
2022/05/15 01:54:21;;;;;;;;;;;;;;;7.29;100.00;99183.25;1747952;82;20079;-70
2022/05/15 01:56:47;;;;;;;;;;;;;;;7.33;100.00;99193.02;1748032;81;21205;-70
2022/05/15 01:59:17;;;;;;;;;;;;;;;7.35;100.00;99191.59;1752699;81;20101;-70
2022/05/15 02:01:44;;;;;;;;;;;;;;;7.39;100.00;99190.44;1724788;82;20119;-70
2022/05/15 02:04:10;;;;;;;;;;;;;;;7.41;100.00;99184.12;1714780;82;20072;-70
2022/05/15 02:06:38;;;;;;;;;;;;;;;7.42;100.00;99188.47;1743359;82;20152;-68
2022/05/15 02:09:05;;;;;;;;;;;;;;;7.45;100.00;99184.58;1692563;84;21164;-69
2022/05/15 02:11:32;;;;;;;;;;;;;;;7.47;100.00;99183.71;1704146;84;20109;-69
2022/05/15 02:14:00;;;;;;;;;;;;;;;7.49;100.00;99182.05;1728824;82;20110;-69
2022/05/15 02:16:27;;;;;;;;;;;;;;;7.50;100.00;99183.11;1714749;83;20857;-69
2022/05/15 02:18:53;;;;;;;;;;;;;;;7.50;100.00;99181.74;1712237;82;20083;-70
2022/05/15 02:21:21;;;;;;;;;;;;;;;7.53;100.00;99188.48;1752772;80;21128;-69
2022/05/15 02:23:49;;;;;;;;;;;;;;;7.55;100.00;99191.72;1691656;83;20118;-69
2022/05/15 02:26:15;;;;;;;;;;;;;;;7.55;100.00;99189.80;1686486;82;20085;-69
2022/05/15 02:28:42;;;;;;;;;;;;;;;7.58;100.00;99195.22;1722897;83;20164;-69
2022/05/15 02:31:09;;;;;;;;;;;;;;;7.59;100.00;99196.83;1692678;84;20474;-69
2022/05/15 02:33:36;;;;;;;;;;;;;;;7.59;100.00;99197.64;1702075;83;20603;-69
2022/05/15 02:36:03;;;;;;;;;;;;;;;7.60;100.00;99188.89;1740647;81;20140;-69
2022/05/15 02:38:31;;;;;;;;;;;;;;;7.62;100.00;99187.47;1692623;84;20114;-69
2022/05/15 02:40:57;;;;;;;;;;;;;;;7.63;100.00;99192.37;1697716;84;20330;-69
2022/05/15 02:43:24;;;;;;;;;;;;;;;7.62;100.00;99190.20;1720372;83;20160;-70
2022/05/15 02:45:51;;;;;;;;;;;;;;;7.64;100.00;99195.36;1690262;84;21977;-69
2022/05/15 02:51:03;;;;;;;;;;;;;;;7.73;100.00;99194.90;1698109;84;20097;-69
2022/05/15 02:53:36;;;;;;;;;;;;;;;7.78;100.00;99196.16;1698147;84;20094;-72
2022/05/15 02:56:04;;;;;;;;;;;;;;;7.83;100.00;99191.14;1698110;84;20085;-72
2022/05/15 02:58:30;;;;;;;;;;;;;;;7.86;100.00;99198.17;1721722;83;21868;-72
2022/05/15 03:00:57;;;;;;;;;;;;;;;7.92;100.00;99205.16;1750052;82;20160;-71
2022/05/15 03:03:24;;;;;;;;;;;;;;;7.97;100.00;99198.77;1727093;82;20087;-71
2022/05/15 03:05:54;;;;;;;;;;;;;;;8.03;100.00;99199.47;1727093;83;20155;-71
2022/05/15 03:08:20;;;;;;;;;;;;;;;8.08;100.00;99204.82;1727218;83;20119;-71
2022/05/15 03:10:46;;;;;;;;;;;;;;;8.12;100.00;99212.62;1727080;83;22150;-71
2022/05/15 03:13:13;;;;;;;;;;;;;;;8.18;100.00;99204.56;1714655;83;20426;-71
2022/05/15 03:15:40;;;;;;;;;;;;;;;8.25;100.00;99209.05;1727140;83;20222;-71
2022/05/15 03:18:07;;;;;;;;;;;;;;;8.31;100.00;99210.55;1726993;83;20426;-71
2022/05/15 03:20:33;;;;;;;;;;;;;;;8.39;100.00;99218.06;1727043;81;20083;-71
2022/05/15 03:23:00;;;;;;;;;;;;;;;8.44;100.00;99222.04;1727073;83;21146;-71
2022/05/15 03:25:27;;;;;;;;;;;;;;;8.50;100.00;99220.80;1727071;83;20119;-71
2022/05/15 03:27:54;;;;;;;;;;;;;;;8.56;100.00;99217.39;1727351;83;20431;-71
2022/05/15 03:30:21;;;;;;;;;;;;;;;8.60;100.00;99224.67;1727136;83;20414;-71
2022/05/15 03:32:48;;;;;;;;;;;;;;;8.64;100.00;99226.23;1727162;83;20175;-71
2022/05/15 03:35:15;;;;;;;;;;;;;;;8.69;100.00;99229.37;1727042;83;21090;-71
2022/05/15 03:37:42;;;;;;;;;;;;;;;8.74;99.83;99223.77;1726805;83;20414;-72
2022/05/15 03:40:11;;;;;;;;;;;;;;;8.76;99.65;99220.97;1727055;82;20183;-70
2022/05/15 03:42:37;;;;;;;;;;;;;;;8.81;99.30;99218.67;1728600;83;20110;-71
2022/05/15 03:45:05;;;;;;;;;;;;;;;8.84;98.90;99220.78;1728701;82;20122;-70
2022/05/15 03:47:31;;;;;;;;;;;;;;;8.86;98.83;99220.72;1707518;81;20607;-71
2022/05/15 03:50:01;;;;;;;;;;;;;;;8.91;98.87;99216.48;1713407;83;20210;-70
2022/05/15 03:52:28;;;;;;;;;;;;;;;9.00;98.82;99219.28;1749448;82;20169;-72
2022/05/15 03:54:55;;;;;;;;;;;;;;;9.06;98.46;99221.33;1711790;83;20699;-70
2022/05/15 03:57:21;;;;;;;;;;;;;;;9.13;98.26;99224.43;1724712;82;20201;-72
2022/05/15 03:59:47;;;;;;;;;;;;;;;9.18;97.93;99222.37;1731436;82;21103;-71
2022/05/15 04:02:14;;;;;;;;;;;;;;;9.23;97.64;99221.42;1726750;82;20451;-71
2022/05/15 04:04:40;;;;;;;;;;;;;;;9.29;97.30;99225.62;1708313;83;20114;-71
2022/05/15 04:07:07;;;;;;;;;;;;;;;9.34;97.06;99225.48;1695090;83;20186;-72
2022/05/15 04:09:34;;;;;;;;;;;;;;;9.37;96.20;99228.16;1730954;83;20170;-71
2022/05/15 04:12:01;;;;;;;;;;;;;;;9.40;96.24;99230.27;1731197;82;21096;-71
2022/05/15 04:14:27;;;;;;;;;;;;;;;9.44;96.20;99233.42;1731163;83;20130;-71
2022/05/15 04:16:55;;;;;;;;;;;;;;;9.51;96.27;99226.13;1731192;82;20074;-70
2022/05/15 04:19:22;;;;;;;;;;;;;;;9.58;95.91;99223.17;1731358;83;20413;-70
2022/05/15 04:21:49;;;;;;;;;;;;;;;9.67;95.62;99231.42;1731302;83;20095;-70
2022/05/15 04:24:17;;;;;;;;;;;;;;;9.76;95.92;99224.60;1731135;82;21150;-72
2022/05/15 04:26:43;;;;;;;;;;;;;;;9.91;95.90;99223.56;1731072;83;20421;-69
2022/05/15 04:29:09;;;;;;;;;;;;;;;10.03;95.18;99234.48;1731151;83;20137;-71
2022/05/15 04:31:37;;;;;;;;;;;;;;;10.12;94.17;99232.00;1731283;82;20193;-71
2022/05/15 04:34:04;;;;;;;;;;;;;;;10.17;94.00;99234.59;1731268;82;20144;-71
2022/05/15 04:36:30;;;;;;;;;;;;;;;10.27;93.13;99233.52;1722321;81;21108;-71
2022/05/15 04:38:57;;;;;;;;;;;;;;;10.36;93.23;99237.08;1710335;83;20102;-70
2022/05/15 04:41:23;;;;;;;;;;;;;;;10.45;92.84;99228.81;1701747;83;20126;-72
2022/05/15 04:43:51;;;;;;;;;;;;;;;10.54;92.47;99226.31;1704370;83;20126;-72
2022/05/15 04:46:18;;;;;;;;;;;;;;;10.64;91.48;99233.42;1708708;83;20508;-70
2022/05/15 04:48:44;;;;;;;;;;;;;;;10.70;90.64;99242.30;1701794;84;21145;-69
2022/05/15 04:51:10;;;;;;;;;;;;;;;10.75;90.27;99236.65;1701618;84;20150;-69
2022/05/15 04:53:37;;;;;;;;;;;;;;;10.82;89.37;99231.47;1701796;84;20145;-70
2022/05/15 04:56:05;;;;;;;;;;;;;;;10.90;89.58;99227.34;1701763;84;20138;-69
2022/05/15 04:58:31;;;;;;;;;;;;;;;11.00;88.10;99219.88;1701698;84;20150;-70
2022/05/15 05:00:58;;;;;;;;;;;;;;;11.08;88.08;99223.17;1710481;83;21793;-70
2022/05/15 05:03:24;;;;;;;;;;;;;;;11.17;87.92;99215.72;1729731;82;20110;-69
2022/05/15 05:05:51;;;;;;;;;;;;;;;11.25;86.92;99228.05;1717727;81;20112;-70
2022/05/15 05:08:17;;;;;;;;;;;;;;;11.28;85.52;99229.91;1706019;81;20259;-70
2022/05/15 05:10:45;;;;;;;;;;;;;;;11.30;86.29;99222.14;1705348;83;20117;-70
2022/05/15 05:13:13;;;;;;;;;;;;;;;11.41;86.39;99229.70;1730952;83;21150;-69
2022/05/15 05:15:40;;;;;;;;;;;;;;;11.58;85.41;99232.93;1731168;82;20139;-70
2022/05/15 05:18:07;;;;;;;;;;;;;;;11.73;85.23;99231.00;1731179;82;20151;-69
2022/05/15 05:20:33;;;;;;;;;;;;;;;11.92;84.87;99230.63;1730471;81;20186;-69
2022/05/15 05:22:59;;;;;;;;;;;;;;;12.09;83.68;99228.34;1730144;83;20150;-69
2022/05/15 05:25:26;;;;;;;;;;;;;;;12.24;82.36;99227.73;1731003;83;22020;-69
2022/05/15 05:27:52;;;;;;;;;;;;;;;12.36;81.31;99228.38;1731107;82;20082;-69
2022/05/15 05:30:21;;;;;;;;;;;;;;;12.43;80.08;99233.58;1731160;83;20147;-69
2022/05/15 05:32:47;;;;;;;;;;;;;;;12.48;79.94;99228.45;1730856;82;20118;-69
2022/05/15 05:35:15;;;;;;;;;;;;;;;12.56;79.34;99227.58;1731335;82;20111;-69
2022/05/15 05:37:42;;;;;;;;;;;;;;;12.60;77.26;99220.83;1731134;82;21122;-70
2022/05/15 05:40:08;;;;;;;;;;;;;;;12.64;77.28;99227.27;1731268;83;20154;-69
2022/05/15 05:42:35;;;;;;;;;;;;;;;12.66;76.51;99219.48;1749393;82;20442;-69
2022/05/15 05:45:03;;;;;;;;;;;;;;;12.72;76.28;99218.91;1752949;82;20113;-69
2022/05/15 05:47:29;;;;;;;;;;;;;;;12.84;77.24;99219.53;1714785;83;20119;-69
2022/05/15 05:49:56;;;;;;;;;;;;;;;13.03;77.39;99212.13;1714857;83;21058;-69
2022/05/15 05:52:26;;;;;;;;;;;;;;;13.25;75.79;99211.77;1752991;82;20465;-69
2022/05/15 05:54:52;;;;;;;;;;;;;;;13.39;75.01;99218.31;1714941;82;20439;-69
2022/05/15 05:57:20;;;;;;;;;;;;;;;13.54;73.93;99215.70;1752827;82;20201;-69
2022/05/15 05:59:46;;;;;;;;;;;;;;;13.63;72.23;99207.89;1714881;83;20091;-69
2022/05/15 06:02:12;;;;;;;;;;;;;;;13.70;71.67;99208.93;1714927;83;22365;-69
2022/05/15 06:04:39;;;;;;;;;;;;;;;13.84;71.57;99211.34;1752796;82;20149;-69
2022/05/15 06:07:06;;;;;;;;;;;;;;;13.89;67.88;99214.65;1714792;83;20096;-69
2022/05/15 06:09:32;;;;;;;;;;;;;;;13.80;67.11;99212.61;1714872;83;20095;-69
2022/05/15 06:12:00;;;;;;;;;;;;;;;13.71;69.12;99222.15;1752871;82;20173;-69
2022/05/15 06:14:26;;;;;;;;;;;;;;;13.69;69.49;99221.69;1714783;82;21125;-69
2022/05/15 06:16:52;;;;;;;;;;;;;;;13.64;68.35;99229.61;1752571;82;20102;-69
2022/05/15 06:19:19;;;;;;;;;;;;;;;13.53;69.20;99218.80;1714842;83;20095;-69
2022/05/15 06:21:47;;;;;;;;;;;;;;;13.43;69.33;99210.97;1714853;82;20083;-69
2022/05/15 06:24:13;;;;;;;;;;;;;;;13.42;70.13;99221.77;1752967;81;20149;-69
2022/05/15 06:26:40;;;;;;;;;;;;;;;13.47;70.41;99217.41;1714726;83;21157;-69
2022/05/15 06:29:06;;;;;;;;;;;;;;;13.59;70.49;99222.94;1714789;82;20414;-69
2022/05/15 06:31:32;;;;;;;;;;;;;;;13.72;70.10;99219.05;1752833;81;20586;-69
2022/05/15 06:33:59;;;;;;;;;;;;;;;13.89;70.71;99223.50;1714857;83;20087;-70
2022/05/15 06:36:25;;;;;;;;;;;;;;;14.09;68.61;99217.05;1714879;82;20431;-69
2022/05/15 06:38:51;;;;;;;;;;;;;;;14.21;68.14;99217.61;1752804;81;21143;-69
2022/05/15 06:41:18;;;;;;;;;;;;;;;14.30;67.93;99221.05;1714703;83;20076;-69
2022/05/15 06:43:44;;;;;;;;;;;;;;;14.41;68.63;99218.07;1752851;82;20109;-69
2022/05/15 06:46:10;;;;;;;;;;;;;;;14.54;66.71;99211.91;1714746;83;20156;-70
2022/05/15 06:48:39;;;;;;;;;;;;;;;14.58;65.49;99214.77;1714977;82;20116;-69
2022/05/15 06:51:05;;;;;;;;;;;;;;;14.51;64.56;99210.65;1753179;81;21142;-69
2022/05/15 06:53:33;;;;;;;;;;;;;;;14.49;64.42;99209.39;1714882;83;20454;-69
2022/05/15 06:58:44;;;;;;;;;;;;;;;14.62;64.51;99194.39;1753005;82;20169;-69
2022/05/15 07:01:12;;;;;;;;;;;;;;;14.74;64.83;99199.06;1714773;83;20096;-69
2022/05/15 07:03:38;;;;;;;;;;;;;;;14.85;63.94;99196.02;1714856;82;21137;-69
2022/05/15 07:06:05;;;;;;;;;;;;;;;14.97;62.55;99196.55;1752745;82;20480;-69
2022/05/15 07:08:31;;;;;;;;;;;;;;;15.04;62.54;99196.13;1714745;82;20107;-69
2022/05/15 07:10:57;;;;;;;;;;;;;;;15.20;63.53;99191.44;1752852;82;20156;-69
2022/05/15 07:13:25;;;;;;;;;;;;;;;15.41;62.56;99187.05;1714758;83;20119;-69
2022/05/15 07:15:51;;;;;;;;;;;;;;;15.57;61.56;99188.45;1714837;83;21163;-69
2022/05/15 07:18:18;;;;;;;;;;;;;;;15.72;60.49;99195.12;1752718;82;20380;-69
2022/05/15 07:20:44;;;;;;;;;;;;;;;15.80;60.48;99185.25;1715029;82;20403;-70
2022/05/15 07:23:11;;;;;;;;;;;;;;;15.93;59.87;99190.68;1752858;81;20488;-70
2022/05/15 07:25:38;;;;;;;;;;;;;;;16.10;59.86;99186.14;1714825;83;20144;-69
2022/05/15 07:28:05;;;;;;;;;;;;;;;16.20;58.18;99175.85;1714787;82;21133;-69
2022/05/15 07:30:31;;;;;;;;;;;;;;;16.15;57.98;99187.23;1752797;82;20452;-70
2022/05/15 07:32:58;;;;;;;;;;;;;;;16.16;57.51;99188.84;1714949;82;20585;-69
2022/05/15 07:35:24;;;;;;;;;;;;;;;16.14;56.88;99177.33;1752771;82;20150;-69
2022/05/15 07:37:51;;;;;;;;;;;;;;;16.04;57.44;99187.58;1714722;83;20099;-69
2022/05/15 07:40:18;;;;;;;;;;;;;;;16.19;58.92;99182.55;1714980;82;21127;-70
2022/05/15 07:42:44;;;;;;;;;;;;;;;16.47;58.01;99176.83;1750600;81;20133;-69
2022/05/15 07:45:11;;;;;;;;;;;;;;;16.82;57.15;99183.11;1715997;83;20083;-70
2022/05/15 07:47:37;;;;;;;;;;;;;;;17.11;54.84;99181.69;1749377;82;20446;-70
2022/05/15 07:50:05;;;;;;;;;;;;;;;17.33;52.76;99180.08;1716003;83;20143;-70
2022/05/15 07:52:31;;;;;;;;;;;;;;;17.35;52.64;99183.28;1746776;82;21171;-70
2022/05/15 07:54:58;;;;;;;;;;;;;;;17.25;52.33;99183.13;1723589;83;20119;-70
2022/05/15 07:57:24;;;;;;;;;;;;;;;17.04;52.31;99177.98;1749474;82;20457;-69
2022/05/15 07:59:50;;;;;;;;;;;;;;;16.86;53.05;99184.56;1716042;83;20156;-70
2022/05/15 08:02:18;;;;;;;;;;;;;;;16.73;51.92;99176.22;1749422;82;20146;-70
2022/05/15 08:10:14;;;;;;;;;;;;;;;16.28;52.30;99167.92;1708881;83;20094;-69
2022/05/15 08:12:42;;;;;;;;;;;;;;;16.15;51.29;99170.63;1722958;82;20470;-69
2022/05/15 08:15:09;;;;;;;;;;;;;;;16.14;49.81;99172.59;1715942;83;20112;-70
2022/05/15 08:17:35;;;;;;;;;;;;;;;16.46;50.45;99177.42;1749291;82;21150;-70
2022/05/15 08:25:32;;;;;;;;;;;;;;;18.35;45.69;99168.98;1700476;83;20609;-70
2022/05/15 08:27:59;;;;;;;;;;;;;;;18.48;43.01;99171.72;1711070;83;20121;-71
2022/05/15 08:30:25;;;;;;;;;;;;;;;18.42;43.79;99156.58;1727888;83;21164;-76
2022/05/15 08:32:54;;;;;;;;;;;;;;;18.29;43.72;99164.14;1733044;82;20476;-70
2022/05/15 08:35:21;;;;;;;;;;;;;;;18.14;43.93;99168.10;1733452;82;20098;-73
2022/05/15 08:37:47;;;;;;;;;;;;;;;18.01;44.35;99152.83;1716911;83;20085;-72
2022/05/15 08:40:14;;;;;;;;;;;;;;;17.96;44.14;99169.81;1734072;82;20118;-70
2022/05/15 08:42:54;;;;;;;;;;;;;;;17.92;43.69;99157.05;1733864;82;21125;-71
2022/05/15 08:45:19;;;;;;;;;;;;;;;17.88;44.78;99159.01;1734061;82;20111;-71
2022/05/15 08:47:47;;;;;;;;;;;;;;;17.76;45.14;99162.20;1731481;83;20142;-74
2022/05/15 08:50:18;;;;;;;;;;;;;;;17.46;44.65;99170.40;1733825;82;20095;-74
2022/05/15 08:53:00;;;;;;;;;;;;;;;17.12;45.70;99165.27;1734029;82;20445;-72
2022/05/15 08:55:43;;;;;;;;;;;;;;;16.94;46.47;99168.88;1734101;82;20780;-69
2022/05/15 08:58:13;;;;;;;;;;;;;;;16.88;47.19;99162.02;1733683;83;20095;-86
2022/05/15 09:00:43;;;;;;;;;;;;;;;16.88;47.64;99163.41;1731903;83;20110;-82
2022/05/15 09:03:16;;;;;;;;;;;;;;;16.99;47.44;99172.15;1720839;82;20438;-81
2022/05/15 09:05:46;;;;;;;;;;;;;;;17.35;46.66;99160.29;1720848;83;20148;-91
2022/05/15 09:08:33;;;;;;;;;;;;;;;17.93;46.51;99151.72;1703872;83;21552;-79
2022/05/15 09:11:06;;;;;;;;;;;;;;;18.51;45.50;99152.69;1704606;84;20444;-81
2022/05/15 09:13:36;;;;;;;;;;;;;;;19.00;43.78;99131.64;1704431;83;20133;-80
2022/05/15 09:16:03;;;;;;;;;;;;;;;19.42;44.97;99138.97;1704571;83;20120;-83
2022/05/15 09:18:33;;;;;;;;;;;;;;;20.02;42.36;99139.22;1704786;84;20085;-84
2022/05/15 09:21:02;;;;;;;;;;;;;;;20.22;41.10;99132.15;1704552;83;22189;-81
2022/05/15 09:23:34;;;;;;;;;;;;;;;20.10;40.96;99130.52;1724768;83;20430;-82
2022/05/15 09:26:02;;;;;;;;;;;;;;;19.80;39.76;99131.31;1733798;82;20075;-85
2022/05/15 09:28:28;;;;;;;;;;;;;;;19.26;39.47;99123.71;1729425;82;20114;-81
2022/05/15 09:30:56;;;;;;;;;;;;;;;18.77;40.40;99140.13;1733701;83;20178;-85
2022/05/15 09:33:38;;;;;;;;;;;;;;;18.38;40.89;99119.61;1733003;83;20536;-79
2022/05/15 09:36:20;;;;;;;;;;;;;;;18.18;41.97;99134.81;1732069;82;20083;-80
2022/05/15 09:38:47;;;;;;;;;;;;;;;17.98;41.33;99133.34;1732286;83;20144;-78
2022/05/15 09:44:08;;;;;;;;;;;;;;;17.70;42.85;99130.38;1732331;82;20118;-84
2022/05/15 09:46:36;;;;;;;;;;;;;;;17.62;41.33;99132.00;1741251;82;21211;-78
2022/05/15 09:49:08;;;;;;;;;;;;;;;17.47;41.38;99128.99;1741284;82;20477;-80
2022/05/15 09:51:48;;;;;;;;;;;;;;;17.46;41.18;99133.52;1734491;82;20114;-79
2022/05/15 09:54:38;;;;;;;;;;;;;;;17.74;41.66;99132.63;1733641;83;20150;-80
2022/05/15 09:57:11;;;;;;;;;;;;;;;18.28;40.00;99123.05;1717013;83;20099;-81
2022/05/15 09:59:38;;;;;;;;;;;;;;;18.68;41.61;99125.72;1733659;82;21152;-78
2022/05/15 10:02:05;;;;;;;;;;;;;;;18.86;39.78;99128.11;1724356;82;20150;-79
2022/05/15 10:04:36;;;;;;;;;;;;;;;18.84;39.86;99131.06;1704476;84;20093;-80
2022/05/15 10:07:05;;;;;;;;;;;;;;;19.04;39.81;99131.88;1704427;83;20156;-80
2022/05/15 10:09:36;;;;;;;;;;;;;;;19.34;38.75;99121.20;1704763;84;20097;-80
2022/05/15 10:12:28;;;;;;;;;;;;;;;19.38;38.17;99120.05;1704839;83;20113;-82
2022/05/15 10:14:54;;;;;;;;;;;;;;;19.20;38.31;99118.29;1711164;83;20123;-81
2022/05/15 10:17:21;;;;;;;;;;;;;;;19.12;38.88;99121.59;1733906;82;20131;-81
2022/05/15 10:19:54;;;;;;;;;;;;;;;19.16;38.11;99120.23;1733775;81;20138;-83
2022/05/15 10:22:25;;;;;;;;;;;;;;;19.17;38.24;99112.09;1733198;83;20083;-81
2022/05/15 10:24:52;;;;;;;;;;;;;;;19.19;38.59;99118.08;1733843;82;21167;-82
2022/05/15 10:27:22;;;;;;;;;;;;;;;19.20;38.08;99105.77;1733812;83;20401;-82
2022/05/15 10:30:03;;;;;;;;;;;;;;;19.31;37.78;99104.68;1734034;83;20207;-83
2022/05/15 10:32:36;;;;;;;;;;;;;;;19.41;37.58;99107.34;1725191;82;20076;-81
2022/05/15 10:35:03;;;;;;;;;;;;;;;19.42;37.16;99108.35;1714686;82;20125;-80
2022/05/15 10:37:39;;;;;;;;;;;;;;;19.32;37.71;99116.61;1704576;84;21156;-81
2022/05/15 10:40:27;;;;;;;;;;;;;;;19.16;37.29;99123.02;1688821;84;20085;-82
2022/05/15 10:43:17;;;;;;;;;;;;;;;18.86;37.80;99133.67;1708394;83;20128;-83
2022/05/15 10:46:07;;;;;;;;;;;;;;;18.73;38.65;99128.16;1718001;83;20160;-83
2022/05/15 10:48:37;;;;;;;;;;;;;;;18.67;38.95;99128.29;1718239;83;20109;-81
2022/05/15 10:51:10;;;;;;;;;;;;;;;18.51;39.29;99126.28;1718219;83;20669;-82
2022/05/15 10:59:57;;;;;;;;;;;;;;;19.25;38.53;99124.30;1718112;83;20526;-86
2022/05/15 11:02:40;;;;;;;;;;;;;;;19.30;37.57;99115.60;1716313;83;20105;-85
2022/05/15 11:05:30;;;;;;;;;;;;;;;19.22;37.05;99128.44;1735513;82;21802;-78
2022/05/15 11:08:31;;;;;;;;;;;;;;;19.24;36.50;99123.30;1716912;83;20133;-78
2022/05/15 11:11:27;;;;;;;;;;;;;;;19.58;37.33;99112.29;1718090;83;20110;-78
2022/05/15 11:14:23;;;;;;;;;;;;;;;20.13;35.16;99110.83;1735023;82;20170;-79
2022/05/15 11:17:30;;;;;;;;;;;;;;;20.58;35.39;99097.49;1715994;83;20485;-80
2022/05/15 11:19:59;;;;;;;;;;;;;;;20.59;34.38;99109.65;1717942;82;21161;-78
2022/05/15 11:22:31;;;;;;;;;;;;;;;20.22;35.31;99118.21;1730016;82;20119;-79
2022/05/15 11:25:16;;;;;;;;;;;;;;;19.85;35.24;99128.77;1746845;81;20095;-78
2022/05/15 11:27:57;;;;;;;;;;;;;;;19.77;34.52;99117.57;1746289;82;20111;-79
2022/05/15 11:30:29;;;;;;;;;;;;;;;20.12;34.10;99106.45;1746398;82;20416;-83
2022/05/15 11:33:12;;;;;;;;;;;;;;;20.70;31.53;99099.33;1746066;81;21142;-85
2022/05/15 11:35:40;;;;;;;;;;;;;;;20.93;30.54;99113.50;1712823;82;20157;-81
2022/05/15 11:38:11;;;;;;;;;;;;;;;20.91;32.18;99113.89;1723998;82;20089;-80
2022/05/15 11:40:42;;;;;;;;;;;;;;;21.08;32.99;99106.16;1732474;82;20101;-79
2022/05/15 11:43:29;;;;;;;;;;;;;;;21.42;32.47;99109.97;1717946;83;20077;-80
2022/05/15 11:46:05;;;;;;;;;;;;;;;21.36;30.04;99100.43;1701273;83;21138;-78
2022/05/15 11:48:40;;;;;;;;;;;;;;;20.95;31.64;99110.52;1717896;83;20101;-83
2022/05/15 11:51:17;;;;;;;;;;;;;;;20.60;31.80;99112.64;1718031;83;20086;-79
2022/05/15 11:54:04;;;;;;;;;;;;;;;20.29;32.55;99107.70;1717899;83;20093;-86
2022/05/15 11:56:48;;;;;;;;;;;;;;;19.99;33.71;99119.11;1717644;83;20459;-89
2022/05/15 11:59:28;;;;;;;;;;;;;;;19.78;33.91;99126.73;1718012;83;21126;-86
2022/05/15 12:01:57;;;;;;;;;;;;;;;19.63;33.92;99114.71;1716479;83;20089;-78
2022/05/15 12:04:39;;;;;;;;;;;;;;;19.57;34.35;99119.63;1717954;83;20133;-88
2022/05/15 12:07:18;;;;;;;;;;;;;;;19.63;34.55;99134.20;1717880;83;20488;-77
2022/05/15 12:09:50;;;;;;;;;;;;;;;19.86;33.29;99110.86;1734650;82;20136;-74
2022/05/15 12:12:31;;;;;;;;;;;;;;;20.19;34.00;99124.59;1718079;83;21107;-76
2022/05/15 12:15:21;;;;;;;;;;;;;;;20.64;32.11;99126.00;1701487;83;20471;-75
2022/05/15 12:17:54;;;;;;;;;;;;;;;20.84;32.20;99112.48;1718032;83;20416;-74
2022/05/15 12:20:23;;;;;;;;;;;;;;;20.73;31.58;99116.67;1717821;82;20421;-74
2022/05/15 12:22:51;;;;;;;;;;;;;;;20.47;33.11;99125.92;1716968;83;20460;-74
2022/05/15 12:25:23;;;;;;;;;;;;;;;20.21;32.97;99120.83;1717976;83;22359;-74
2022/05/15 12:30:50;;;;;;;;;;;;;;;19.70;33.77;99121.70;1677316;83;20113;-75
2022/05/15 12:33:23;;;;;;;;;;;;;;;19.65;34.76;99115.09;1718049;83;20439;-74
2022/05/15 12:35:50;;;;;;;;;;;;;;;19.87;35.18;99119.42;1717951;83;20089;-80
2022/05/15 12:38:19;;;;;;;;;;;;;;;20.22;34.32;99110.48;1717845;83;21139;-79
2022/05/15 12:41:05;;;;;;;;;;;;;;;20.53;32.98;99108.43;1718042;83;20086;-85
2022/05/15 12:43:35;;;;;;;;;;;;;;;20.72;32.25;99114.27;1717983;83;20169;-70
2022/05/15 12:46:02;;;;;;;;;;;;;;;20.50;33.06;99115.38;1717811;83;20778;-78
2022/05/15 12:48:28;;;;;;;;;;;;;;;20.26;34.49;99120.42;1717421;83;20136;-79
2022/05/15 12:51:06;;;;;;;;;;;;;;;20.21;34.15;99122.81;1718332;83;21140;-79
2022/05/15 12:53:39;;;;;;;;;;;;;;;20.17;34.67;99120.01;1718365;83;20087;-79
2022/05/15 12:56:29;;;;;;;;;;;;;;;20.12;34.31;99120.38;1718276;83;20125;-79
2022/05/15 12:58:59;;;;;;;;;;;;;;;20.05;34.94;99118.95;1717637;82;20073;-79
2022/05/15 13:01:30;;;;;;;;;;;;;;;20.21;35.47;99117.23;1733087;82;20089;-79
2022/05/15 13:03:58;;;;;;;;;;;;;;;20.44;36.23;99119.95;1718624;83;21107;-80
2022/05/15 13:06:33;;;;;;;;;;;;;;;20.63;34.55;99118.02;1718273;83;20457;-80
2022/05/15 13:09:10;;;;;;;;;;;;;;;20.59;34.81;99124.19;1718319;83;20121;-80
2022/05/15 13:11:40;;;;;;;;;;;;;;;20.42;34.97;99115.36;1718241;83;20113;-81
2022/05/15 13:14:16;;;;;;;;;;;;;;;20.35;36.01;99115.30;1718492;83;20109;-80
2022/05/15 13:16:46;;;;;;;;;;;;;;;20.31;35.22;99129.80;1724173;82;21670;-80
2022/05/15 13:19:14;;;;;;;;;;;;;;;20.23;35.27;99121.80;1735981;82;20456;-82
2022/05/15 13:21:42;;;;;;;;;;;;;;;20.49;34.81;99115.98;1718095;82;20097;-83
2022/05/15 13:24:09;;;;;;;;;;;;;;;20.61;34.04;99124.59;1718207;83;20121;-81
2022/05/15 13:26:41;;;;;;;;;;;;;;;20.35;33.63;99118.67;1718333;83;20074;-81
2022/05/15 13:29:08;;;;;;;;;;;;;;;19.96;33.82;99108.73;1718327;83;21135;-81